Impacts TAF Board
For situational awareness. Not to be used for flight planning purposes.
IDs:

KMEM - Memphis Intl, TN, US

Issued at 1741 UTC 23 Sep 2018
Updated at 1940 UTC 23 Sep 2018
Potential Impact None Slight Moderate High
Time<<24/08Z 24/09Z 24/10Z 24/11Z 24/12Z 24/13Z 24/14Z 24/15Z 24/16Z 24/17Z 24/18Z 24/19Z 24/20Z>>
Type PRVL
  [TEMP]  
PRVL
  [TEMP]  
PRVL
  [TEMP]  
PRVL
  [TEMP]  
PRVL PRVL PRVL PRVL PRVL PRVL PRVL PRVL PRVL
VIS >6 >6 >6 >6 >6 >6 >6 >6 >6 >6 >6 >6 >6
CIG 15
  [4]  
15
  [4]  
15
  [4]  
15
  [4]  
15 15 25 25 25 25 35 35 35
Cover OVC
  [BKN]  
OVC
  [BKN]  
OVC
  [BKN]  
OVC
  [BKN]  
OVC OVC BKN BKN BKN BKN BKN BKN BKN
FltCat MVFR
  [LIFR]  
MVFR
  [LIFR]  
MVFR
  [LIFR]  
MVFR
  [LIFR]  
MVFR MVFR MVFR MVFR MVFR MVFR VFR VFR VFR
WX -SHRA
  [--]  
-SHRA
  [--]  
-SHRA
  [--]  
-SHRA
  [--]  
-SHRA -SHRA VCSH VCSH VCSH VCSH VCTS VCTS VCTS
WDir 130
[130]
130
[130]
130
[130]
130
[130]
130 130 140 140 140 140 160 160 160
WSpd 7
  [7]  
7
  [7]  
7
  [7]  
7
  [7]  
7 7 7 7 7 7 8 8 8
WGst --
  [--]  
--
  [--]  
--
  [--]  
--
  [--]  
-- -- -- -- -- -- -- -- --
Raw TAF
KMEM 231741Z 2318/2424 09006KT 4SM -RA BR OVC003
  FM232100 11006KT 5SM -SHRA BR VCTS BKN006 OVC015CB
  FM240400 13007KT P6SM -SHRA SCT004 BKN015 OVC030
  TEMPO 2408/2412 BKN004
  FM241400 14007KT P6SM VCSH SCT015 BKN025
  FM241800 16008KT P6SM VCTS BKN035CB


METAR Board
Radar Display
Forecast Discussion
For situational awareness. Not to be used for flight planning purposes.